Time;durP1;ratioP1;P1;durP2;ratioP2;P2;SDS_P1;SDS_P2;PMS_P1;PMS_P2;Temp;Humidity;BMP_temperature;BMP_pressure;BME280_temperature;BME280_humidity;BME280_pressure;Samples;Min_cycle;Max_cycle;Signal;HPM_P1;HPM_P2
2023/08/10 00:01:30;;;;;;;5.60;0.60;;;16.00;99.90;;;;;;5071043;28;20534;-51
2023/08/10 00:03:56;;;;;;;1.85;0.88;;;16.00;99.90;;;;;;5071938;28;20085;-54
2023/08/10 00:06:21;;;;;;;2.60;0.60;;;16.00;99.90;;;;;;5073177;28;20103;-53
2023/08/10 00:08:47;;;;;;;7.30;1.08;;;16.00;99.90;;;;;;5068767;28;20020;-53
2023/08/10 00:11:13;;;;;;;1.02;0.75;;;16.00;99.90;;;;;;5071810;28;20489;-52
2023/08/10 00:13:39;;;;;;;1.38;1.00;;;16.00;99.90;;;;;;5071211;28;20138;-52
2023/08/10 00:16:04;;;;;;;2.28;0.50;;;16.10;99.90;;;;;;5070124;28;20025;-54
2023/08/10 00:18:30;;;;;;;0.77;0.40;;;16.10;99.90;;;;;;5068653;28;20021;-54
2023/08/10 00:20:56;;;;;;;1.52;0.85;;;16.10;99.90;;;;;;5071793;28;20477;-53
2023/08/10 00:23:21;;;;;;;2.45;0.60;;;16.10;99.90;;;;;;5070933;28;20024;-54
2023/08/10 00:25:47;;;;;;;2.70;0.43;;;16.00;99.90;;;;;;5072740;28;20047;-54
2023/08/10 00:28:13;;;;;;;1.27;0.70;;;15.90;99.90;;;;;;5072911;28;20494;-52
2023/08/10 00:30:39;;;;;;;2.30;0.63;;;15.90;99.90;;;;;;5072087;28;20029;-51
2023/08/10 00:33:05;;;;;;;5.43;1.20;;;16.00;99.90;;;;;;5072798;28;20516;-54
2023/08/10 00:35:31;;;;;;;2.05;0.75;;;16.00;99.90;;;;;;5072756;28;20037;-53
2023/08/10 00:37:56;;;;;;;0.82;0.60;;;16.00;99.90;;;;;;5072745;28;20531;-52
2023/08/10 00:40:22;;;;;;;1.00;0.50;;;16.10;99.90;;;;;;5072653;28;20066;-54
2023/08/10 00:42:48;;;;;;;2.58;0.70;;;16.10;99.90;;;;;;5072766;28;20095;-53
2023/08/10 00:45:13;;;;;;;0.50;0.50;;;16.10;99.90;;;;;;5071522;28;20032;-54
2023/08/10 00:47:40;;;;;;;4.47;0.65;;;16.10;99.90;;;;;;5055932;28;20029;-53
2023/08/10 00:50:07;;;;;;;1.40;0.90;;;16.10;99.90;;;;;;5054364;28;20040;-55
2023/08/10 00:52:33;;;;;;;1.03;0.80;;;16.10;99.90;;;;;;5061820;28;20033;-56
2023/08/10 00:55:00;;;;;;;0.60;0.50;;;16.10;99.90;;;;;;5052824;28;20495;-54
2023/08/10 00:57:27;;;;;;;0.93;0.70;;;16.10;99.90;;;;;;5058346;28;20021;-53
2023/08/10 00:59:53;;;;;;;1.02;0.93;;;16.10;99.90;;;;;;5072565;28;20040;-53
2023/08/10 01:02:19;;;;;;;1.27;1.00;;;16.10;99.90;;;;;;5072129;28;20028;-54
2023/08/10 01:04:45;;;;;;;6.55;1.27;;;16.00;99.90;;;;;;5054125;28;20067;-52
2023/08/10 01:07:40;;;;;;;1.58;1.27;;;16.00;99.90;;;;;;5051849;28;20071;-54
2023/08/10 01:10:18;;;;;;;4.13;1.30;;;16.00;99.90;;;;;;5052332;28;20028;-53
2023/08/10 01:12:53;;;;;;;;;;;15.90;99.90;;;;;;5052787;28;20078;-53
2023/08/10 01:16:02;;;;;;;2.05;1.30;;;15.90;99.90;;;;;;5052429;28;20314;-53
2023/08/10 01:18:28;;;;;;;2.58;1.60;;;15.90;99.90;;;;;;5059109;28;20531;-56
2023/08/10 01:20:54;;;;;;;2.70;1.25;;;15.80;99.90;;;;;;5071863;28;20056;-52
2023/08/10 01:23:35;;;;;;;3.30;1.83;;;15.70;99.90;;;;;;5071287;28;20024;-51
2023/08/10 01:26:02;;;;;;;1.88;1.45;;;15.70;99.90;;;;;;5053287;28;20063;-51
2023/08/10 01:28:29;;;;;;;1.93;1.03;;;15.60;99.90;;;;;;5072226;28;20028;-51
2023/08/10 01:30:55;;;;;;;3.50;1.45;;;15.60;99.90;;;;;;5067800;28;20445;-50
2023/08/10 01:33:21;;;;;;;7.20;1.95;;;15.60;99.90;;;;;;5072198;28;20081;-54
2023/08/10 01:35:46;;;;;;;2.22;1.30;;;15.50;99.90;;;;;;5072222;28;20618;-53
2023/08/10 01:38:12;;;;;;;6.68;1.80;;;15.50;99.90;;;;;;5070635;28;20024;-54
2023/08/10 01:40:38;;;;;;;4.22;1.50;;;15.50;99.90;;;;;;5067667;28;20020;-54
2023/08/10 01:43:04;;;;;;;1.58;1.42;;;15.50;99.90;;;;;;5071233;28;20228;-52
2023/08/10 01:45:30;;;;;;;2.67;1.83;;;15.40;99.90;;;;;;5071871;28;20142;-53
2023/08/10 01:48:12;;;;;;;1.95;1.30;;;15.40;99.90;;;;;;5070883;28;20024;-52
2023/08/10 01:50:42;;;;;;;2.47;1.27;;;15.40;99.90;;;;;;5070059;28;20044;-54
2023/08/10 01:53:20;;;;;;;1.90;1.80;;;15.40;99.90;;;;;;5072019;28;20036;-52
2023/08/10 01:55:46;;;;;;;4.78;1.70;;;15.40;99.90;;;;;;5054662;28;20108;-54
2023/08/10 01:58:12;;;;;;;9.55;2.10;;;15.40;99.90;;;;;;5054371;28;20107;-54
2023/08/10 02:00:38;;;;;;;2.65;2.10;;;15.40;99.90;;;;;;5075512;28;20032;-53
2023/08/10 02:03:07;;;;;;;4.90;1.75;;;15.30;99.90;;;;;;5074757;28;20032;-50
2023/08/10 02:05:33;;;;;;;2.97;2.22;;;15.30;99.90;;;;;;5075417;28;20032;-52
2023/08/10 02:07:59;;;;;;;1.58;1.33;;;15.20;99.90;;;;;;5074675;28;20034;-52
2023/08/10 02:10:25;;;;;;;2.15;1.95;;;15.10;99.90;;;;;;5075263;28;20029;-53
2023/08/10 02:12:51;;;;;;;2.65;2.00;;;15.10;99.90;;;;;;5055457;28;20119;-52
2023/08/10 02:15:16;;;;;;;2.22;1.60;;;15.00;99.90;;;;;;5057351;28;20088;-49
2023/08/10 02:17:42;;;;;;;1.65;1.55;;;14.90;99.90;;;;;;5074212;28;20094;-54
2023/08/10 02:20:12;;;;;;;2.92;2.00;;;14.90;99.90;;;;;;5075145;28;20029;-52
2023/08/10 02:22:58;;;;;;;7.53;1.90;;;14.90;99.90;;;;;;5066509;28;20052;-53
2023/08/10 02:25:24;;;;;;;3.85;2.22;;;14.80;99.90;;;;;;5036944;28;20493;-54
2023/08/10 02:27:50;;;;;;;3.42;2.30;;;14.80;99.90;;;;;;5073841;28;20027;-53
2023/08/10 02:30:16;;;;;;;2.70;1.85;;;14.80;99.90;;;;;;5067440;28;20067;-53
2023/08/10 02:32:41;;;;;;;2.72;2.17;;;14.70;99.90;;;;;;5073955;28;20048;-52
2023/08/10 02:35:09;;;;;;;5.65;2.25;;;14.70;99.90;;;;;;5074944;28;20025;-54
2023/08/10 02:37:35;;;;;;;5.97;2.10;;;14.70;99.90;;;;;;5074798;28;20028;-55
2023/08/10 02:40:03;;;;;;;8.77;2.42;;;14.70;99.90;;;;;;5073465;28;20485;-53
2023/08/10 02:42:28;;;;;;;;;;;14.70;99.90;;;;;;5072919;28;20039;-53
2023/08/10 02:44:54;;;;;;;5.75;1.70;;;14.70;99.90;;;;;;5072884;28;20280;-54
2023/08/10 02:47:19;;;;;;;3.00;2.22;;;14.70;99.90;;;;;;5055518;28;20025;-54
2023/08/10 02:49:45;;;;;;;3.42;2.30;;;14.70;99.90;;;;;;5071895;28;20043;-54
2023/08/10 02:52:11;;;;;;;9.13;2.20;;;14.70;99.90;;;;;;5071625;28;20405;-53
2023/08/10 02:54:37;;;;;;;2.58;2.00;;;14.60;99.90;;;;;;5071921;28;20052;-53
2023/08/10 02:57:03;;;;;;;7.40;2.22;;;14.60;99.90;;;;;;5072282;28;20029;-54
2023/08/10 02:59:28;;;;;;;2.30;2.10;;;14.60;99.90;;;;;;5060089;28;20382;-50
2023/08/10 03:01:55;;;;;;;2.72;2.05;;;14.70;99.90;;;;;;5070028;28;20044;-54
2023/08/10 03:04:20;;;;;;;2.80;2.10;;;14.60;99.90;;;;;;5074177;28;20547;-53
2023/08/10 03:06:46;;;;;;;2.20;1.70;;;14.60;99.90;;;;;;5072834;28;20055;-44
2023/08/10 03:09:13;;;;;;;5.20;2.08;;;14.70;99.90;;;;;;5056241;28;20127;-41
2023/08/10 03:11:38;;;;;;;8.10;2.17;;;14.60;99.90;;;;;;5072463;28;20023;-44
2023/08/10 03:14:04;;;;;;;5.22;2.10;;;14.60;99.90;;;;;;5073197;28;20032;-40
2023/08/10 03:16:31;;;;;;;3.63;1.67;;;14.60;99.90;;;;;;5072025;28;20426;-41
2023/08/10 03:18:57;;;;;;;5.28;2.22;;;14.60;99.90;;;;;;5065658;28;20025;-40
2023/08/10 03:21:23;;;;;;;3.85;1.98;;;14.60;99.90;;;;;;5056224;28;20021;-40
2023/08/10 03:23:48;;;;;;;2.92;2.03;;;14.60;99.90;;;;;;5073976;28;20074;-43
2023/08/10 03:26:14;;;;;;;4.97;1.75;;;14.60;99.90;;;;;;5074028;28;20020;-42
2023/08/10 03:28:40;;;;;;;4.32;2.05;;;14.60;99.90;;;;;;5054810;28;20039;-42
2023/08/10 03:31:05;;;;;;;1.88;1.55;;;14.60;99.90;;;;;;5053768;28;20504;-42
2023/08/10 03:33:31;;;;;;;7.60;3.20;;;14.70;99.90;;;;;;5073691;28;20032;-41
2023/08/10 03:35:57;;;;;;;3.50;2.45;;;14.70;99.90;;;;;;5072280;28;20020;-42
2023/08/10 03:38:23;;;;;;;4.75;3.00;;;14.70;99.90;;;;;;5061580;28;20043;-42
2023/08/10 03:40:48;;;;;;;6.78;2.65;;;14.70;99.90;;;;;;5035804;28;20029;-42
2023/08/10 03:43:14;;;;;;;6.05;3.20;;;14.70;99.90;;;;;;5071298;28;20078;-40
2023/08/10 03:45:40;;;;;;;5.82;3.03;;;14.70;99.90;;;;;;5071777;28;20442;-40
2023/08/10 03:48:06;;;;;;;5.47;3.13;;;14.80;99.90;;;;;;5070597;28;20535;-42
2023/08/10 03:50:31;;;;;;;6.88;3.90;;;14.80;99.90;;;;;;5073283;28;20075;-43
2023/08/10 03:52:57;;;;;;;4.75;3.20;;;14.80;99.90;;;;;;5070917;28;20493;-43
2023/08/10 03:55:23;;;;;;;5.63;3.08;;;14.80;99.90;;;;;;5055727;28;20461;-41
2023/08/10 03:57:48;;;;;;;5.80;3.15;;;14.90;99.90;;;;;;5071236;28;20029;-44
2023/08/10 04:00:16;;;;;;;4.22;2.78;;;14.90;99.90;;;;;;5073447;28;20540;-40
2023/08/10 04:02:42;;;;;;;6.57;3.42;;;14.90;99.90;;;;;;5068854;28;20115;-43
2023/08/10 04:05:07;;;;;;;2.65;2.38;;;14.90;99.90;;;;;;5072227;28;20517;-41
2023/08/10 04:07:33;;;;;;;3.85;3.40;;;15.00;99.90;;;;;;5071420;28;20466;-43
2023/08/10 04:10:00;;;;;;;4.72;3.30;;;15.00;99.90;;;;;;5069096;28;20538;-40
2023/08/10 04:12:27;;;;;;;2.37;2.00;;;15.00;99.90;;;;;;5058652;28;20388;-41
2023/08/10 04:14:53;;;;;;;3.55;2.28;;;15.00;99.90;;;;;;5054620;28;20453;-42
2023/08/10 04:17:19;;;;;;;3.97;2.55;;;15.10;99.90;;;;;;5070888;28;20103;-43
2023/08/10 04:19:44;;;;;;;3.10;2.25;;;15.10;99.90;;;;;;5072576;28;20029;-41
2023/08/10 04:22:10;;;;;;;5.57;3.63;;;15.10;99.90;;;;;;5072983;28;20025;-41
2023/08/10 04:24:36;;;;;;;4.30;3.10;;;15.10;99.90;;;;;;5069754;28;20098;-41
2023/08/10 04:27:02;;;;;;;4.10;3.05;;;15.10;99.90;;;;;;5071443;28;20486;-43
2023/08/10 04:29:28;;;;;;;6.15;3.08;;;15.10;99.90;;;;;;5055023;28;20020;-52
2023/08/10 04:31:54;;;;;;;4.85;3.15;;;15.20;99.90;;;;;;5071656;28;20465;-50
2023/08/10 04:34:20;;;;;;;4.15;2.88;;;15.20;99.90;;;;;;5072044;28;20032;-54
2023/08/10 04:36:46;;;;;;;8.25;3.40;;;15.30;99.90;;;;;;5072803;28;20542;-54
2023/08/10 04:39:12;;;;;;;10.30;3.75;;;15.30;99.90;;;;;;5072773;28;20481;-53
2023/08/10 04:41:38;;;;;;;6.32;4.47;;;15.30;99.90;;;;;;5054796;28;20031;-54
2023/08/10 04:44:04;;;;;;;7.82;4.00;;;15.30;99.90;;;;;;5070638;28;20481;-54
2023/08/10 04:46:30;;;;;;;8.73;4.03;;;15.30;99.90;;;;;;5070593;28;20025;-52
2023/08/10 04:48:55;;;;;;;6.15;3.17;;;15.40;99.90;;;;;;5072693;28;20024;-52
2023/08/10 04:51:21;;;;;;;11.85;4.28;;;15.40;99.90;;;;;;5072480;28;20041;-53
2023/08/10 04:53:47;;;;;;;11.48;4.68;;;15.40;99.90;;;;;;5069148;28;20029;-54
2023/08/10 04:56:12;;;;;;;8.25;3.63;;;15.50;99.90;;;;;;5072961;28;20028;-51
2023/08/10 04:58:38;;;;;;;4.40;2.95;;;15.50;99.90;;;;;;5072532;28;20032;-53
2023/08/10 05:01:04;;;;;;;7.47;3.67;;;15.50;99.90;;;;;;5069423;28;20025;-52
2023/08/10 05:03:30;;;;;;;7.40;3.47;;;15.60;99.90;;;;;;5071866;28;20485;-46
2023/08/10 05:05:56;;;;;;;6.97;3.17;;;15.60;99.90;;;;;;5070139;28;20028;-51
2023/08/10 05:08:22;;;;;;;7.93;3.00;;;15.70;99.90;;;;;;5072328;28;20024;-54
2023/08/10 05:10:49;;;;;;;6.68;3.35;;;15.80;99.90;;;;;;5072322;28;20404;-52
2023/08/10 05:13:15;;;;;;;5.53;2.90;;;15.80;99.90;;;;;;5072515;28;20134;-52
2023/08/10 05:15:41;;;;;;;5.93;2.63;;;15.90;99.90;;;;;;5071124;28;20056;-52
2023/08/10 05:18:06;;;;;;;5.60;2.63;;;16.00;99.90;;;;;;5070897;28;20063;-54
2023/08/10 05:20:32;;;;;;;6.35;2.95;;;16.00;99.90;;;;;;5070870;28;20028;-54
2023/08/10 05:22:58;;;;;;;8.05;3.30;;;16.10;99.90;;;;;;5071245;28;20435;-54
2023/08/10 05:25:24;;;;;;;7.75;2.95;;;16.10;99.90;;;;;;5072179;28;20082;-54
2023/08/10 05:27:49;;;;;;;2.83;2.13;;;16.20;99.90;;;;;;5072288;28;20425;-54
2023/08/10 05:30:15;;;;;;;4.75;2.40;;;16.30;99.90;;;;;;5071953;28;20108;-53
2023/08/10 05:32:45;;;;;;;6.20;2.40;;;16.40;99.90;;;;;;5074391;28;20024;-51
2023/08/10 05:35:11;;;;;;;6.47;2.33;;;16.40;99.90;;;;;;5075125;28;20142;-53
2023/08/10 05:37:38;;;;;;;8.57;3.50;;;16.50;99.90;;;;;;5075818;28;20032;-53
2023/08/10 05:40:09;;;;;;;3.93;2.07;;;16.60;99.90;;;;;;5070735;28;20036;-41
2023/08/10 05:42:38;;;;;;;2.45;2.25;;;16.70;99.90;;;;;;5056029;28;20036;-40
2023/08/10 05:45:08;;;;;;;3.50;2.25;;;16.70;99.90;;;;;;5056181;28;20048;-41
2023/08/10 05:47:35;;;;;;;5.07;2.15;;;16.80;99.90;;;;;;5055954;28;20064;-49
2023/08/10 05:50:01;;;;;;;6.38;2.45;;;16.90;99.90;;;;;;5058285;28;20481;-44
2023/08/10 05:52:27;;;;;;;4.40;1.58;;;16.90;99.90;;;;;;5069138;28;20040;-43
2023/08/10 05:54:53;;;;;;;6.75;1.75;;;17.00;99.90;;;;;;5062893;28;20370;-43
2023/08/10 05:57:19;;;;;;;2.83;2.40;;;17.00;99.90;;;;;;5075628;28;20465;-43
2023/08/10 05:59:45;;;;;;;2.10;1.85;;;17.10;99.90;;;;;;5070918;28;20418;-42
2023/08/10 06:02:11;;;;;;;1.85;1.73;;;17.10;99.90;;;;;;5055882;28;20108;-41
2023/08/10 06:04:36;;;;;;;9.30;3.38;;;17.10;99.90;;;;;;5055815;28;20028;-42
2023/08/10 06:07:02;;;;;;;5.47;2.05;;;17.20;99.90;;;;;;5057215;28;20025;-52
2023/08/10 06:09:28;;;;;;;3.42;2.08;;;17.20;99.90;;;;;;5068700;28;20037;-48
2023/08/10 06:11:54;;;;;;;3.05;1.63;;;17.20;99.90;;;;;;5057034;28;20078;-54
2023/08/10 06:14:20;;;;;;;2.63;1.77;;;17.20;99.90;;;;;;5055413;28;20029;-52
2023/08/10 06:16:46;;;;;;;6.82;1.90;;;17.10;99.90;;;;;;5061824;28;20044;-54
2023/08/10 06:19:12;;;;;;;3.97;1.70;;;17.20;99.90;;;;;;5075328;28;20021;-53
2023/08/10 06:21:37;;;;;;;1.67;1.58;;;17.30;99.90;;;;;;5075310;28;20035;-54
2023/08/10 06:24:06;;;;;;;3.22;1.70;;;17.40;99.90;;;;;;5073567;28;20153;-54
2023/08/10 06:26:33;;;;;;;3.15;1.70;;;17.50;99.90;;;;;;5055695;28;20481;-56
2023/08/10 06:28:59;;;;;;;1.58;1.48;;;17.70;99.90;;;;;;5055956;28;20124;-56
2023/08/10 06:31:25;;;;;;;1.40;1.30;;;17.90;99.90;;;;;;5070428;28;20119;-53
2023/08/10 06:33:51;;;;;;;1.75;1.13;;;18.00;99.90;;;;;;5065664;28;20369;-49
2023/08/10 06:36:16;;;;;;;3.55;1.50;;;18.20;99.90;;;;;;5072208;28;20516;-54
2023/08/10 06:38:42;;;;;;;9.07;1.08;;;18.40;99.90;;;;;;5071704;28;20126;-52
2023/08/10 06:41:08;;;;;;;1.42;1.33;;;18.40;99.90;;;;;;5074169;28;20039;-51
2023/08/10 06:43:34;;;;;;;1.67;1.50;;;18.60;99.90;;;;;;5067028;28;20025;-54
2023/08/10 06:45:59;;;;;;;1.02;0.98;;;18.70;99.90;;;;;;5065561;28;20027;-55
2023/08/10 06:48:25;;;;;;;2.15;1.23;;;18.80;99.90;;;;;;5074844;28;20029;-52
2023/08/10 06:50:51;;;;;;;0.80;0.65;;;18.90;99.90;;;;;;5074430;28;20495;-52
2023/08/10 06:53:16;;;;;;;3.13;1.83;;;19.00;99.90;;;;;;5074525;28;20032;-51
2023/08/10 06:55:42;;;;;;;1.83;1.20;;;19.10;99.90;;;;;;5074171;28;20036;-53
2023/08/10 06:58:08;;;;;;;3.53;1.70;;;19.10;99.90;;;;;;5074524;28;20035;-54
2023/08/10 07:00:35;;;;;;;1.90;1.05;;;19.20;99.90;;;;;;5067079;28;20478;-52
2023/08/10 07:03:02;;;;;;;3.28;2.13;;;19.20;99.90;;;;;;5054485;28;20143;-52
2023/08/10 07:05:28;;;;;;;0.93;0.90;;;19.30;99.90;;;;;;5054403;28;20025;-50
2023/08/10 07:07:55;;;;;;;1.45;1.02;;;19.30;99.90;;;;;;5074094;28;20028;-49
2023/08/10 07:10:21;;;;;;;3.33;1.20;;;19.20;99.90;;;;;;5074509;28;20028;-52
2023/08/10 07:12:46;;;;;;;7.25;1.05;;;19.20;99.90;;;;;;5074301;28;20077;-52
2023/08/10 07:15:12;;;;;;;1.83;0.60;;;19.10;99.90;;;;;;5074097;28;20047;-52
2023/08/10 07:17:38;;;;;;;8.30;1.30;;;19.10;99.90;;;;;;5073571;28;20024;-49
2023/08/10 07:20:06;;;;;;;0.90;0.90;;;19.00;99.90;;;;;;5070984;28;20025;-51
2023/08/10 07:22:32;;;;;;;2.40;1.00;;;19.00;99.90;;;;;;5073918;28;20036;-53
2023/08/10 07:25:03;;;;;;;2.20;1.00;;;19.20;99.90;;;;;;5074051;28;20066;-53
2023/08/10 07:27:30;;;;;;;1.42;0.77;;;19.50;99.90;;;;;;5072915;28;20155;-53
2023/08/10 07:29:56;;;;;;;5.65;1.58;;;19.50;99.90;;;;;;5071861;28;20047;-52
2023/08/10 07:32:22;;;;;;;2.13;1.40;;;19.50;99.90;;;;;;5049805;28;20043;-52
2023/08/10 07:34:48;;;;;;;4.50;1.00;;;19.40;99.90;;;;;;5063132;28;20529;-53
2023/08/10 07:37:14;;;;;;;1.98;1.10;;;19.30;99.90;;;;;;5053635;28;20080;-49
2023/08/10 07:39:40;;;;;;;2.45;1.33;;;19.20;99.90;;;;;;5068165;28;20032;-51
2023/08/10 07:42:06;;;;;;;1.27;0.95;;;19.10;99.90;;;;;;5073912;28;20468;-50
2023/08/10 07:44:32;;;;;;;1.50;1.10;;;19.10;99.90;;;;;;5073641;28;20056;-52
2023/08/10 07:46:58;;;;;;;1.15;1.05;;;19.00;99.90;;;;;;5071878;28;20457;-51
2023/08/10 07:49:24;;;;;;;4.15;1.08;;;19.00;99.90;;;;;;5073067;28;20538;-52
2023/08/10 07:51:50;;;;;;;4.63;1.38;;;19.00;99.90;;;;;;5071508;28;20029;-58
2023/08/10 07:54:15;;;;;;;1.55;1.02;;;18.90;99.90;;;;;;5072843;28;20047;-50
2023/08/10 07:56:42;;;;;;;3.95;1.25;;;18.90;99.90;;;;;;5072982;28;20056;-52
2023/08/10 07:59:08;;;;;;;4.57;1.20;;;18.90;99.90;;;;;;5072795;28;20048;-47
2023/08/10 08:01:34;;;;;;;1.55;1.27;;;18.90;99.90;;;;;;5071713;28;20107;-50
2023/08/10 08:04:00;;;;;;;1.75;1.13;;;18.90;99.90;;;;;;5051544;28;20123;-52
2023/08/10 08:06:25;;;;;;;3.28;1.13;;;18.90;99.90;;;;;;5054157;28;20021;-52
2023/08/10 08:08:51;;;;;;;2.35;1.55;;;18.90;99.90;;;;;;5073236;28;20366;-50
2023/08/10 08:11:18;;;;;;;2.50;1.30;;;19.00;99.90;;;;;;5073050;28;20393;-52
2023/08/10 08:13:43;;;;;;;7.25;1.85;;;19.00;99.90;;;;;;5071287;28;20017;-51
2023/08/10 08:16:10;;;;;;;3.58;2.05;;;19.00;99.90;;;;;;5071910;28;20485;-51
2023/08/10 08:18:40;;;;;;;7.35;2.13;;;19.00;99.90;;;;;;5070888;28;20025;-48
2023/08/10 08:21:07;;;;;;;8.18;2.42;;;19.10;99.90;;;;;;5046229;28;20176;-51
2023/08/10 08:23:33;;;;;;;6.85;2.70;;;19.10;99.90;;;;;;5069310;28;20392;-52
2023/08/10 08:25:58;;;;;;;6.32;3.15;;;19.20;99.90;;;;;;5054322;28;20103;-51
2023/08/10 08:28:24;;;;;;;4.95;2.88;;;19.40;99.90;;;;;;5070412;28;20059;-50
2023/08/10 08:30:54;;;;;;;4.40;3.15;;;19.60;99.90;;;;;;5072593;28;20036;-56
2023/08/10 08:33:20;;;;;;;6.03;3.08;;;19.80;99.90;;;;;;5054748;28;20460;-51
2023/08/10 08:35:46;;;;;;;5.60;3.00;;;20.00;99.90;;;;;;5054524;28;20040;-50
2023/08/10 08:38:14;;;;;;;3.33;2.67;;;20.10;99.90;;;;;;5073103;28;20470;-52
2023/08/10 08:40:40;;;;;;;5.15;3.00;;;20.10;99.90;;;;;;5072388;28;20060;-53
2023/08/10 08:43:06;;;;;;;6.57;3.85;;;20.10;99.90;;;;;;5072703;28;20032;-53
2023/08/10 08:45:32;;;;;;;11.82;4.35;;;20.10;99.90;;;;;;5072661;28;20463;-52
2023/08/10 08:47:58;;;;;;;8.40;4.35;;;20.10;99.90;;;;;;5072903;28;20056;-51
2023/08/10 08:50:26;;;;;;;6.18;3.47;;;20.00;99.90;;;;;;5072434;28;20059;-53
2023/08/10 08:52:53;;;;;;;9.20;5.15;;;20.10;99.90;;;;;;5072695;28;20033;-52
2023/08/10 08:55:19;;;;;;;7.85;4.75;;;20.10;99.90;;;;;;5072876;28;20538;-53
2023/08/10 08:57:46;;;;;;;7.00;4.20;;;20.10;99.90;;;;;;5071576;28;20553;-52
2023/08/10 09:00:13;;;;;;;10.38;5.50;;;20.20;99.90;;;;;;5071599;28;20029;-53
2023/08/10 09:02:38;;;;;;;10.30;4.18;;;20.30;99.90;;;;;;5072403;28;20035;-52
2023/08/10 09:05:04;;;;;;;5.22;3.35;;;20.30;99.90;;;;;;5054532;28;20481;-52
2023/08/10 09:07:31;;;;;;;9.18;4.18;;;20.30;99.90;;;;;;5075942;28;20028;-51
2023/08/10 09:09:57;;;;;;;7.15;4.47;;;20.30;99.90;;;;;;5076576;28;20040;-53
2023/08/10 09:12:33;;;;;;;5.43;3.60;;;20.20;99.90;;;;;;5076580;28;20024;-50
2023/08/10 09:15:05;;;;;;;7.53;3.85;;;20.30;99.90;;;;;;5072262;28;20052;-51
2023/08/10 09:17:32;;;;;;;5.10;3.25;;;20.40;99.90;;;;;;5074988;28;20032;-53
2023/08/10 09:19:58;;;;;;;7.80;3.03;;;20.60;99.90;;;;;;5072340;28;20450;-48
2023/08/10 09:22:30;;;;;;;9.50;4.13;;;20.90;99.90;;;;;;5074083;28;20112;-50
2023/08/10 09:24:56;;;;;;;7.13;3.58;;;21.00;99.90;;;;;;5076209;28;20025;-50
2023/08/10 09:27:26;;;;;;;6.00;3.03;;;21.20;99.90;;;;;;5076188;28;20370;-52
2023/08/10 09:29:59;;;;;;;7.53;3.72;;;21.60;99.90;;;;;;5076180;28;20038;-52
2023/08/10 09:32:25;;;;;;;13.20;4.10;;;22.00;99.90;;;;;;5076039;28;20370;-51
2023/08/10 09:34:51;;;;;;;6.25;2.97;;;22.10;99.90;;;;;;5076132;28;20074;-50
2023/08/10 09:37:17;;;;;;;9.40;3.55;;;22.10;99.90;;;;;;5076046;28;20033;-51
2023/08/10 09:39:43;;;;;;;7.65;3.22;;;22.10;99.90;;;;;;5075958;28;20485;-51
2023/08/10 09:42:09;;;;;;;6.10;2.28;;;22.10;99.90;;;;;;5075581;28;20112;-52
2023/08/10 09:44:50;;;;;;;6.70;3.33;;;22.10;99.90;;;;;;5075872;28;20029;-52
2023/08/10 09:47:18;;;;;;;6.55;3.35;;;22.00;99.90;;;;;;5076085;28;20024;-51
2023/08/10 09:49:55;;;;;;;5.18;3.33;;;22.00;99.90;;;;;;5057937;28;20552;-51
2023/08/10 09:52:23;;;;;;;4.68;3.03;;;22.00;99.90;;;;;;5075633;28;20502;-52
2023/08/10 09:54:50;;;;;;;8.30;3.58;;;21.90;99.90;;;;;;5075776;28;20112;-52
2023/08/10 09:57:17;;;;;;;;;;;21.90;99.90;;;;;;5076159;28;20035;-52
2023/08/10 09:59:45;;;;;;;5.40;3.47;;;22.00;99.90;;;;;;5075906;28;19909;-53
2023/08/10 10:02:11;;;;;;;7.28;2.50;;;22.00;99.90;;;;;;5075903;28;20037;-53
2023/08/10 10:04:38;;;;;;;9.18;3.45;;;22.00;99.90;;;;;;5075869;28;20036;-52
2023/08/10 10:07:06;;;;;;;9.27;3.20;;;22.00;99.90;;;;;;5075306;28;20028;-53
2023/08/10 10:09:34;;;;;;;3.90;2.90;;;22.10;99.90;;;;;;5075381;28;20063;-52
2023/08/10 10:12:00;;;;;;;8.18;3.40;;;22.10;99.90;;;;;;5075552;28;20055;-50
2023/08/10 10:14:27;;;;;;;7.63;3.83;;;22.20;99.90;;;;;;5075723;28;20021;-52
2023/08/10 10:16:53;;;;;;;4.17;2.13;;;22.20;99.90;;;;;;5075320;28;20511;-54
2023/08/10 10:19:20;;;;;;;4.20;2.28;;;22.20;99.90;;;;;;5074528;28;20024;-48
2023/08/10 10:21:47;;;;;;;4.63;3.30;;;22.20;99.90;;;;;;5075355;28;20040;-51
2023/08/10 10:24:17;;;;;;;4.97;2.85;;;22.10;99.90;;;;;;5074774;28;20817;-52
2023/08/10 10:26:57;;;;;;;9.73;2.83;;;22.00;99.90;;;;;;5075505;28;20028;-50
2023/08/10 10:29:37;;;;;;;7.47;2.25;;;22.00;99.90;;;;;;5075124;28;20032;-51
2023/08/10 10:32:06;;;;;;;7.68;2.60;;;22.10;99.90;;;;;;5075397;28;20099;-50
2023/08/10 10:34:33;;;;;;;4.20;2.33;;;22.10;99.90;;;;;;5075276;28;20472;-53
2023/08/10 10:37:12;;;;;;;5.53;1.75;;;22.10;99.90;;;;;;5075359;28;20099;-52
2023/08/10 10:39:49;;;;;;;5.07;2.15;;;22.10;99.90;;;;;;5075018;28;20020;-52
2023/08/10 10:42:18;;;;;;;2.57;2.13;;;22.10;99.90;;;;;;5072819;28;20020;-50
2023/08/10 10:45:00;;;;;;;5.15;1.83;;;22.10;99.90;;;;;;5072523;28;20480;-51
2023/08/10 10:47:35;;;;;;;2.78;1.60;;;22.10;99.90;;;;;;5069645;28;20033;-52
2023/08/10 10:50:13;;;;;;;2.85;1.60;;;22.20;99.90;;;;;;5073259;28;20052;-53
2023/08/10 10:52:39;;;;;;;2.92;1.50;;;22.20;99.90;;;;;;5033835;28;20046;-52
2023/08/10 10:55:09;;;;;;;2.20;1.50;;;22.30;99.90;;;;;;5034675;28;20533;-52
2023/08/10 10:57:38;;;;;;;2.42;1.35;;;22.20;99.90;;;;;;5034825;28;20017;-53
2023/08/10 11:00:05;;;;;;;2.10;1.10;;;22.20;99.90;;;;;;5034669;28;20041;-52
2023/08/10 11:02:31;;;;;;;1.00;0.90;;;22.20;99.90;;;;;;5034481;28;20033;-49
2023/08/10 11:04:57;;;;;;;2.72;1.60;;;22.20;99.90;;;;;;5034619;28;20437;-53
2023/08/10 11:07:23;;;;;;;1.58;1.33;;;22.10;99.90;;;;;;5034693;28;20033;-53
2023/08/10 11:09:49;;;;;;;3.10;1.20;;;22.10;99.90;;;;;;5034431;28;20139;-53
2023/08/10 11:12:17;;;;;;;3.65;1.30;;;22.10;99.90;;;;;;5034154;28;20028;-52
2023/08/10 11:14:43;;;;;;;1.95;1.35;;;22.00;99.90;;;;;;5034489;28;20032;-48
2023/08/10 11:17:09;;;;;;;2.35;1.20;;;22.00;99.90;;;;;;5034360;28;20475;-52
2023/08/10 11:19:35;;;;;;;3.35;0.90;;;22.00;99.90;;;;;;5034226;28;20036;-53
2023/08/10 11:22:00;;;;;;;2.25;1.10;;;22.00;99.90;;;;;;5034554;28;20493;-52
2023/08/10 11:24:29;;;;;;;1.65;1.00;;;22.10;99.90;;;;;;5034096;28;20030;-53
2023/08/10 11:26:56;;;;;;;4.63;1.13;;;22.20;99.90;;;;;;5032916;28;20328;-52
2023/08/10 11:29:22;;;;;;;2.60;1.02;;;22.40;99.90;;;;;;5031769;28;20021;-53
2023/08/10 11:31:49;;;;;;;1.70;1.20;;;22.40;99.90;;;;;;5029068;28;20390;-53
2023/08/10 11:34:22;;;;;;;3.95;1.27;;;22.50;99.90;;;;;;5033955;28;20036;-49
2023/08/10 11:36:49;;;;;;;3.92;1.20;;;22.60;99.90;;;;;;5033574;28;20029;-53
2023/08/10 11:39:15;;;;;;;1.60;1.08;;;22.70;99.90;;;;;;5032443;28;20035;-53
2023/08/10 11:41:45;;;;;;;7.20;1.15;;;22.70;99.90;;;;;;5034096;28;20036;-53
2023/08/10 11:44:28;;;;;;;2.15;1.13;;;22.80;99.90;;;;;;5033955;28;20036;-52
2023/08/10 11:46:58;;;;;;;2.65;1.20;;;22.80;99.90;;;;;;5033868;28;20029;-49
2023/08/10 11:49:31;;;;;;;0.98;0.95;;;22.70;99.90;;;;;;5033713;28;20521;-52
2023/08/10 11:52:14;;;;;;;0.77;0.77;;;22.80;99.90;;;;;;5046320;28;20079;-53
2023/08/10 11:54:40;;;;;;;2.67;1.25;;;22.80;99.90;;;;;;5053835;28;20025;-52
2023/08/10 11:57:12;;;;;;;3.67;1.27;;;22.80;99.90;;;;;;5053465;28;20028;-51
2023/08/10 11:59:39;;;;;;;2.95;0.98;;;22.80;99.90;;;;;;5053458;28;20439;-40
2023/08/10 12:02:04;;;;;;;2.60;1.23;;;22.90;99.90;;;;;;5053152;28;20028;-41
2023/08/10 12:04:33;;;;;;;1.55;0.93;;;22.90;99.90;;;;;;5052406;28;20481;-39
2023/08/10 12:07:00;;;;;;;3.58;1.20;;;23.10;99.90;;;;;;5051594;28;20025;-43
2023/08/10 12:09:30;;;;;;;2.20;0.95;;;23.20;99.90;;;;;;5052543;28;20017;-41
2023/08/10 12:11:58;;;;;;;1.25;1.10;;;23.30;99.90;;;;;;5053192;28;20079;-40
2023/08/10 12:14:24;;;;;;;3.58;1.17;;;23.40;99.90;;;;;;5051920;28;20389;-41
2023/08/10 12:16:50;;;;;;;1.75;0.90;;;23.50;99.90;;;;;;5052690;28;20355;-40
2023/08/10 12:19:16;;;;;;;3.42;1.13;;;23.50;99.90;;;;;;5053135;28;20032;-42
2023/08/10 12:21:41;;;;;;;3.45;1.00;;;23.60;99.90;;;;;;5053007;28;20417;-43
2023/08/10 12:24:07;;;;;;;2.75;1.17;;;23.50;99.90;;;;;;5052999;28;20059;-44
2023/08/10 12:26:33;;;;;;;3.88;1.25;;;23.50;99.90;;;;;;5053249;28;20544;-45
2023/08/10 12:28:58;;;;;;;1.85;1.00;;;23.50;99.90;;;;;;5052909;28;20029;-48
2023/08/10 12:31:25;;;;;;;1.40;1.30;;;23.50;99.90;;;;;;5052795;28;20036;-44
2023/08/10 12:33:54;;;;;;;1.50;1.25;;;23.40;99.90;;;;;;5052873;28;20546;-42
2023/08/10 12:36:20;;;;;;;1.98;1.17;;;23.30;99.90;;;;;;5052914;28;20511;-45
2023/08/10 12:38:46;;;;;;;6.35;1.85;;;23.30;99.90;;;;;;5052480;28;20057;-42
2023/08/10 12:41:12;;;;;;;2.38;1.30;;;23.40;99.90;;;;;;5051323;28;20139;-41
2023/08/10 12:43:38;;;;;;;6.10;1.38;;;23.40;99.90;;;;;;5052751;28;20135;-42
2023/08/10 12:46:04;;;;;;;1.30;1.20;;;23.50;99.90;;;;;;5051383;28;20041;-43
2023/08/10 12:48:30;;;;;;;7.78;1.10;;;23.60;99.90;;;;;;5053059;28;20036;-40